createdAt,value
2022-10-19T00:00:17.511Z,9.73
2022-10-19T00:03:23.225Z,9.75
2022-10-19T00:06:30.307Z,9.77
2022-10-19T00:09:33.858Z,9.70
2022-10-19T00:12:37.490Z,9.68
2022-10-19T00:15:42.927Z,9.67
2022-10-19T00:18:47.519Z,9.70
2022-10-19T00:21:52.129Z,9.70
2022-10-19T00:24:58.221Z,9.73
2022-10-19T00:28:02.794Z,9.74
2022-10-19T00:31:11.284Z,9.77
2022-10-19T00:34:14.915Z,9.77
2022-10-19T00:37:18.499Z,9.84
2022-10-19T00:40:22.083Z,9.83
2022-10-19T00:43:29.200Z,9.79
2022-10-19T00:46:37.721Z,9.77
2022-10-19T00:49:45.706Z,9.82
2022-10-19T00:52:49.479Z,9.77
2022-10-19T00:55:53.181Z,9.82
2022-10-19T00:58:57.193Z,9.76
2022-10-19T01:02:06.480Z,9.82
2022-10-19T01:05:12.195Z,9.82
2022-10-19T01:08:15.983Z,9.86
2022-10-19T01:11:40.874Z,9.78
2022-10-19T01:15:02.035Z,9.81
2022-10-19T01:18:22.039Z,9.84
2022-10-19T01:21:30.052Z,9.91
2022-10-19T01:25:10.715Z,9.83
2022-10-19T01:28:40.409Z,9.78
2022-10-19T01:31:53.404Z,9.79
2022-10-19T01:35:09.472Z,9.79
2022-10-19T01:38:27.913Z,9.78
2022-10-19T01:41:44.500Z,9.74
2022-10-19T01:44:56.721Z,9.78
2022-10-19T01:48:08.211Z,9.76
2022-10-19T01:51:19.107Z,9.83
2022-10-19T01:54:27.618Z,9.81
2022-10-19T01:57:36.976Z,9.82
2022-10-19T02:00:46.540Z,9.82
2022-10-19T02:03:54.326Z,9.83
2022-10-19T02:06:59.291Z,9.72
2022-10-19T02:10:03.069Z,9.74
2022-10-19T02:13:09.290Z,9.74
2022-10-19T02:16:19.614Z,9.76
2022-10-19T02:22:34.425Z,9.78
2022-10-19T02:25:38.521Z,9.78
2022-10-19T02:28:42.264Z,9.74
2022-10-19T02:31:46.320Z,9.77
2022-10-19T02:34:51.443Z,9.79
2022-10-19T02:37:56.079Z,9.78
2022-10-19T02:41:11.166Z,9.82
2022-10-19T02:44:23.086Z,9.79
2022-10-19T02:47:33.710Z,9.89
2022-10-19T02:50:39.722Z,9.82
2022-10-19T02:53:43.341Z,9.83
2022-10-19T02:56:46.863Z,9.82
2022-10-19T02:59:50.894Z,9.82
2022-10-19T03:02:54.488Z,9.77
2022-10-19T03:05:59.411Z,9.79
2022-10-19T03:09:02.987Z,9.79
2022-10-19T03:12:06.965Z,9.77
2022-10-19T03:15:16.708Z,9.69
2022-10-19T03:18:20.343Z,9.71
2022-10-19T03:21:25.324Z,9.67
2022-10-19T03:24:29.070Z,9.65
2022-10-19T03:27:32.981Z,9.63
2022-10-19T03:30:36.847Z,9.61
2022-10-19T03:33:40.525Z,9.60
2022-10-19T03:36:45.837Z,9.60
2022-10-19T03:39:49.396Z,9.59
2022-10-19T03:42:52.944Z,9.57
2022-10-19T03:45:56.467Z,9.55
2022-10-19T03:49:01.210Z,9.51
2022-10-19T03:52:06.471Z,9.51
2022-10-19T03:55:11.496Z,9.53
2022-10-19T03:58:15.051Z,9.52
2022-10-19T04:01:22.181Z,9.52
2022-10-19T04:04:25.764Z,9.53
2022-10-19T04:07:30.783Z,9.53
2022-10-19T04:10:34.352Z,9.55
2022-10-19T04:13:38.250Z,9.51
2022-10-19T04:16:42.169Z,9.51
2022-10-19T04:19:45.716Z,9.47
2022-10-19T04:22:50.669Z,9.53
2022-10-19T04:25:54.329Z,9.52
2022-10-19T04:28:59.779Z,9.53
2022-10-19T04:32:03.436Z,9.54
2022-10-19T04:35:08.830Z,9.43
2022-10-19T04:38:13.814Z,9.48
2022-10-19T04:41:20.309Z,9.58
2022-10-19T04:47:32.889Z,9.56
2022-10-19T04:50:36.795Z,9.61
2022-10-19T04:53:43.800Z,9.64
2022-10-19T04:56:47.463Z,9.72
2022-10-19T04:59:50.978Z,9.79
2022-10-19T05:02:54.532Z,9.77
2022-10-19T05:06:00.917Z,9.85
2022-10-19T05:09:06.055Z,9.87
2022-10-19T05:12:09.657Z,9.90
2022-10-19T05:15:13.288Z,9.88
2022-10-19T05:18:16.912Z,9.87
2022-10-19T05:21:21.974Z,9.89
2022-10-19T05:24:27.144Z,9.91
2022-10-19T05:27:30.703Z,9.90
2022-10-19T05:30:34.430Z,9.90
2022-10-19T05:33:39.256Z,9.95
2022-10-19T05:36:42.919Z,9.97
2022-10-19T05:39:47.815Z,9.95
2022-10-19T05:42:51.379Z,9.93
2022-10-19T05:45:54.939Z,9.96
2022-10-19T05:49:00.018Z,9.99
2022-10-19T05:52:03.604Z,10.02
2022-10-19T05:55:10.477Z,10.08
2022-10-19T05:58:14.130Z,10.06
2022-10-19T06:01:20.029Z,10.07
2022-10-19T06:04:23.712Z,10.15
2022-10-19T06:07:27.271Z,10.10
2022-10-19T06:10:32.205Z,10.04
2022-10-19T06:13:36.296Z,10.07
2022-10-19T06:16:40.222Z,10.07
2022-10-19T06:19:43.774Z,10.07
2022-10-19T06:22:47.384Z,10.05
2022-10-19T06:25:52.351Z,10.09
2022-10-19T06:28:58.071Z,10.16
2022-10-19T06:32:01.627Z,10.20
2022-10-19T06:35:05.548Z,10.22
2022-10-19T06:38:09.144Z,10.23
2022-10-19T06:41:14.818Z,10.18
2022-10-19T06:44:18.387Z,10.14
2022-10-19T06:47:21.906Z,10.17
2022-10-19T06:50:25.493Z,10.26
2022-10-19T06:53:30.047Z,10.19
2022-10-19T06:56:35.018Z,10.30
2022-10-19T06:59:38.558Z,10.33
2022-10-19T07:02:42.184Z,10.41
2022-10-19T07:05:55.311Z,10.43
2022-10-19T07:08:58.919Z,10.50
2022-10-19T07:12:03.886Z,10.51
2022-10-19T07:15:09.082Z,10.62
2022-10-19T07:18:12.694Z,10.71
2022-10-19T07:21:17.876Z,10.63
2022-10-19T07:24:21.622Z,10.78
2022-10-19T07:27:26.621Z,10.91
2022-10-19T07:30:30.278Z,10.88
2022-10-19T07:33:33.943Z,10.96
2022-10-19T07:36:37.997Z,11.10
2022-10-19T07:39:41.536Z,11.26
2022-10-19T07:42:46.460Z,11.29
2022-10-19T07:45:49.990Z,11.40
2022-10-19T07:48:54.583Z,11.54
2022-10-19T07:51:59.128Z,11.67
2022-10-19T07:55:02.679Z,11.62
2022-10-19T07:58:07.647Z,11.53
2022-10-19T08:01:14.941Z,11.71
2022-10-19T08:04:59.421Z,11.58
2022-10-19T08:07:42.791Z,11.79
2022-10-19T08:10:46.313Z,11.72
2022-10-19T08:13:51.904Z,11.81
2022-10-19T08:16:55.436Z,11.66
2022-10-19T08:19:59.011Z,11.91
2022-10-19T08:23:02.861Z,11.98
2022-10-19T08:26:06.827Z,12.10
2022-10-19T08:29:14.990Z,11.92
2022-10-19T08:32:18.576Z,11.84
2022-10-19T08:35:22.143Z,11.94
2022-10-19T08:38:25.694Z,11.96
2022-10-19T08:41:38.905Z,12.08
2022-10-19T08:45:20.323Z,12.25
2022-10-19T08:48:29.876Z,12.46
2022-10-19T08:51:41.415Z,12.50
2022-10-19T08:54:53.163Z,12.25
2022-10-19T08:58:07.927Z,12.47
2022-10-19T09:01:19.748Z,12.46
2022-10-19T09:04:29.927Z,12.64
2022-10-19T09:07:45.473Z,12.90
2022-10-19T09:10:53.724Z,12.88
2022-10-19T09:14:06.482Z,12.82
2022-10-19T09:17:17.105Z,12.57
2022-10-19T09:20:26.396Z,12.51
2022-10-19T09:23:39.306Z,12.58
2022-10-19T09:26:53.648Z,12.64
2022-10-19T09:29:59.606Z,12.82
2022-10-19T09:33:04.768Z,12.68
2022-10-19T09:36:22.303Z,12.67
2022-10-19T09:39:32.343Z,12.69
2022-10-19T09:42:37.104Z,12.89
2022-10-19T09:45:51.114Z,13.17
2022-10-19T09:48:56.182Z,12.94
2022-10-19T09:51:59.711Z,13.02
2022-10-19T09:55:06.912Z,12.63
2022-10-19T09:58:19.534Z,12.92
2022-10-19T10:01:41.929Z,12.94
2022-10-19T10:04:58.551Z,12.93
2022-10-19T10:08:03.126Z,13.20
2022-10-19T10:11:13.260Z,13.16
2022-10-19T10:14:22.387Z,13.45
2022-10-19T10:17:31.779Z,13.27
2022-10-19T10:20:37.131Z,13.13
2022-10-19T10:23:41.130Z,13.12
2022-10-19T10:26:48.270Z,12.78
2022-10-19T10:29:57.535Z,12.69
2022-10-19T10:33:09.362Z,12.50
2022-10-19T10:36:30.232Z,12.69
2022-10-19T10:39:42.675Z,12.50
2022-10-19T10:42:48.833Z,12.58
2022-10-19T10:45:55.701Z,12.41
2022-10-19T10:49:03.775Z,12.22
2022-10-19T10:52:14.140Z,12.20
2022-10-19T10:55:19.696Z,12.20
2022-10-19T10:58:38.158Z,12.07
2022-10-19T11:01:46.167Z,12.13
2022-10-19T11:04:57.509Z,12.06
2022-10-19T11:08:14.043Z,12.15
2022-10-19T11:11:23.856Z,12.23
2022-10-19T11:14:37.859Z,12.33
2022-10-19T11:17:55.675Z,12.45
2022-10-19T11:21:08.324Z,12.32
2022-10-19T11:24:24.144Z,12.22
2022-10-19T11:27:47.627Z,12.23
2022-10-19T11:31:05.454Z,12.28
2022-10-19T11:34:29.965Z,12.08
2022-10-19T11:37:50.076Z,12.14
2022-10-19T11:41:28.416Z,12.27
2022-10-19T11:44:51.627Z,12.36
2022-10-19T11:48:38.418Z,12.43
2022-10-19T11:51:53.576Z,12.32
2022-10-19T11:55:18.343Z,12.19
2022-10-19T11:58:51.201Z,12.38
2022-10-19T12:02:16.401Z,12.60
2022-10-19T12:05:26.506Z,12.85
2022-10-19T12:08:56.200Z,12.91
2022-10-19T12:12:30.687Z,12.89
2022-10-19T12:15:42.413Z,13.31
2022-10-19T12:18:51.780Z,13.31
2022-10-19T12:22:01.168Z,13.28
2022-10-19T12:25:06.888Z,13.26
2022-10-19T12:28:20.024Z,12.98
2022-10-19T12:31:28.097Z,13.10
2022-10-19T12:34:46.102Z,13.35
2022-10-19T12:37:58.826Z,13.46
2022-10-19T12:41:12.682Z,13.45
2022-10-19T12:44:43.578Z,13.19
2022-10-19T12:48:23.099Z,13.29
2022-10-19T12:51:26.695Z,13.11
2022-10-19T12:54:33.384Z,12.91
2022-10-19T12:57:39.753Z,13.25
2022-10-19T13:00:59.466Z,13.25
2022-10-19T13:04:14.980Z,13.46
2022-10-19T13:07:20.420Z,13.33
2022-10-19T13:10:27.458Z,13.53
2022-10-19T13:14:02.697Z,13.74
2022-10-19T13:17:06.404Z,13.61
2022-10-19T13:20:53.124Z,13.83
2022-10-19T13:24:32.593Z,13.46
2022-10-19T13:27:40.468Z,13.50
2022-10-19T13:31:07.115Z,13.81
2022-10-19T13:34:17.497Z,14.15
2022-10-19T13:37:23.009Z,14.20
2022-10-19T13:40:26.619Z,14.45
2022-10-19T13:43:35.028Z,14.06
2022-10-19T13:46:59.411Z,13.96
2022-10-19T13:50:40.619Z,13.99
2022-10-19T13:53:53.807Z,13.95
2022-10-19T13:57:24.631Z,13.86
2022-10-19T14:00:37.705Z,14.04
2022-10-19T14:04:18.777Z,13.79
2022-10-19T14:07:30.668Z,13.68
2022-10-19T14:10:56.239Z,13.61
2022-10-19T14:14:18.342Z,13.60
2022-10-19T14:17:25.566Z,13.61
2022-10-19T14:20:34.500Z,13.61
2022-10-19T14:23:41.047Z,13.59
2022-10-19T14:26:46.090Z,13.58
2022-10-19T14:29:53.226Z,13.48
2022-10-19T14:33:02.070Z,13.43
2022-10-19T14:36:09.204Z,13.37
2022-10-19T14:39:27.559Z,13.35
2022-10-19T14:42:42.660Z,13.14
2022-10-19T14:45:46.564Z,13.15
2022-10-19T14:48:52.136Z,12.94
2022-10-19T14:52:01.806Z,12.76
2022-10-19T14:55:17.745Z,12.75
2022-10-19T14:58:28.375Z,12.67
2022-10-19T15:01:32.023Z,12.68
2022-10-19T15:04:40.284Z,12.59
2022-10-19T15:07:45.623Z,12.49
2022-10-19T15:10:50.709Z,12.46
2022-10-19T15:14:04.580Z,12.43
2022-10-19T15:17:28.494Z,12.38
2022-10-19T15:20:44.011Z,12.40
2022-10-19T15:24:09.755Z,12.31
2022-10-19T15:27:22.415Z,12.21
2022-10-19T15:30:32.171Z,12.12
2022-10-19T15:33:43.227Z,12.07
2022-10-19T15:36:57.940Z,11.97
2022-10-19T15:40:20.063Z,11.87
2022-10-19T15:43:38.972Z,11.81
2022-10-19T15:47:23.722Z,11.65
2022-10-19T15:50:38.645Z,11.58
2022-10-19T15:53:42.176Z,11.53
2022-10-19T15:56:48.835Z,11.38
2022-10-19T15:59:52.406Z,11.24
2022-10-19T16:02:57.355Z,11.17
2022-10-19T16:06:01.522Z,11.01
2022-10-19T16:09:06.326Z,10.94
2022-10-19T16:12:12.048Z,10.75
2022-10-19T16:15:17.499Z,10.61
2022-10-19T16:18:22.396Z,10.39
2022-10-19T16:21:30.611Z,10.28
2022-10-19T16:24:34.263Z,10.34
2022-10-19T16:27:38.020Z,10.15
2022-10-19T16:30:41.747Z,9.96
2022-10-19T16:33:46.723Z,9.88
2022-10-19T16:36:50.385Z,9.82
2022-10-19T16:39:54.008Z,9.71
2022-10-19T16:43:00.387Z,9.68
2022-10-19T16:46:05.598Z,9.74
2022-10-19T16:49:10.510Z,9.83
2022-10-19T16:52:15.670Z,9.81
2022-10-19T16:55:19.561Z,9.75
2022-10-19T16:58:23.210Z,9.71
2022-10-19T17:01:27.896Z,9.73
2022-10-19T17:04:32.859Z,9.77
2022-10-19T17:07:36.387Z,9.78
2022-10-19T17:10:39.999Z,9.78
2022-10-19T17:13:45.140Z,9.75
2022-10-19T17:16:48.845Z,9.72
2022-10-19T17:19:53.867Z,9.69
2022-10-19T17:22:57.394Z,9.69
2022-10-19T17:26:00.960Z,9.70
2022-10-19T17:29:06.681Z,9.65
2022-10-19T17:32:10.339Z,9.64
2022-10-19T17:35:15.272Z,9.57
2022-10-19T17:38:18.978Z,9.51
2022-10-19T17:41:23.198Z,9.42
2022-10-19T17:44:26.754Z,9.40
2022-10-19T17:47:30.551Z,9.38
2022-10-19T17:50:35.708Z,9.38
2022-10-19T17:53:39.813Z,9.36
2022-10-19T17:56:45.377Z,9.23
2022-10-19T17:59:52.891Z,9.07
2022-10-19T18:02:56.875Z,8.98
2022-10-19T18:06:08.197Z,8.90
2022-10-19T18:09:14.662Z,8.86
2022-10-19T18:12:18.607Z,8.81
2022-10-19T18:15:22.422Z,8.80
2022-10-19T18:18:26.196Z,8.79
2022-10-19T18:21:34.292Z,8.72
2022-10-19T18:24:37.965Z,8.69
2022-10-19T18:27:41.636Z,8.62
2022-10-19T18:30:45.438Z,8.57
2022-10-19T18:33:51.017Z,8.56
2022-10-19T18:36:57.064Z,8.54
2022-10-19T18:40:01.165Z,8.52
2022-10-19T18:43:05.716Z,8.54
2022-10-19T18:46:11.000Z,8.51
2022-10-19T18:49:14.765Z,8.44
2022-10-19T18:52:19.730Z,8.40
2022-10-19T18:55:23.436Z,8.37
2022-10-19T18:58:28.700Z,8.29
2022-10-19T19:01:34.843Z,8.28
2022-10-19T19:04:38.992Z,8.26
2022-10-19T19:07:44.239Z,8.23
2022-10-19T19:10:48.183Z,8.20
2022-10-19T19:13:54.623Z,8.17
2022-10-19T19:16:58.430Z,8.18
2022-10-19T19:20:02.083Z,8.11
2022-10-19T19:23:07.837Z,8.05
2022-10-19T19:26:13.465Z,8.02
2022-10-19T19:29:18.265Z,7.96
2022-10-19T19:32:22.312Z,7.91
2022-10-19T19:35:26.094Z,7.88
2022-10-19T19:38:32.142Z,7.89
2022-10-19T19:41:35.868Z,7.90
2022-10-19T19:44:39.679Z,7.90
2022-10-19T19:47:43.550Z,7.90
2022-10-19T19:50:48.651Z,7.86
2022-10-19T19:53:53.611Z,7.84
2022-10-19T19:56:57.881Z,7.75
2022-10-19T20:00:01.836Z,7.68
2022-10-19T20:03:06.072Z,7.67
2022-10-19T20:06:10.537Z,7.65
2022-10-19T20:09:15.794Z,7.58
2022-10-19T20:12:19.306Z,7.55
2022-10-19T20:15:22.923Z,7.52
2022-10-19T20:18:26.931Z,7.50
2022-10-19T20:21:31.840Z,7.52
2022-10-19T20:24:37.838Z,7.50
2022-10-19T20:27:41.941Z,7.49
2022-10-19T20:30:45.591Z,7.48
2022-10-19T20:33:50.096Z,7.46
2022-10-19T20:36:54.114Z,7.44
2022-10-19T20:39:59.428Z,7.45
2022-10-19T20:43:03.788Z,7.36
2022-10-19T20:46:11.574Z,7.32
2022-10-19T20:49:15.321Z,7.27
2022-10-19T20:52:18.969Z,7.27
2022-10-19T20:55:24.315Z,7.21
2022-10-19T20:58:27.955Z,7.16
2022-10-19T21:01:34.917Z,7.18
2022-10-19T21:04:38.695Z,7.12
2022-10-19T21:07:42.415Z,7.08
2022-10-19T21:10:47.439Z,7.01
2022-10-19T21:13:55.284Z,6.97
2022-10-19T21:17:00.711Z,6.95
2022-10-19T21:20:04.383Z,6.93
2022-10-19T21:23:07.926Z,6.90
2022-10-19T21:26:13.731Z,6.87
2022-10-19T21:29:18.838Z,6.88
2022-10-19T21:32:22.866Z,6.86
2022-10-19T21:35:26.380Z,6.86
2022-10-19T21:38:30.088Z,6.80
2022-10-19T21:41:35.423Z,6.78
2022-10-19T21:44:39.326Z,6.76
2022-10-19T21:47:42.882Z,6.73
2022-10-19T21:50:47.032Z,6.68
2022-10-19T21:53:50.991Z,6.66
2022-10-19T21:56:57.711Z,6.69
2022-10-19T22:00:01.311Z,6.63
2022-10-19T22:03:05.477Z,6.61
2022-10-19T22:06:09.429Z,6.59
2022-10-19T22:09:16.970Z,6.60
2022-10-19T22:12:21.949Z,6.54
2022-10-19T22:15:26.011Z,6.53
2022-10-19T22:18:29.566Z,6.51
2022-10-19T22:21:34.926Z,6.51
2022-10-19T22:24:38.724Z,6.48
2022-10-19T22:27:43.761Z,6.43
2022-10-19T22:30:54.918Z,6.43
2022-10-19T22:33:58.859Z,6.42
2022-10-19T22:37:02.412Z,6.47
2022-10-19T22:40:07.098Z,6.43
2022-10-19T22:43:12.045Z,6.39
2022-10-19T22:46:15.615Z,6.41
2022-10-19T22:49:19.158Z,6.38
2022-10-19T22:52:22.792Z,6.32
2022-10-19T22:55:26.732Z,6.35
2022-10-19T22:58:31.839Z,6.32
2022-10-19T23:01:36.136Z,6.29
2022-10-19T23:04:39.934Z,6.30
2022-10-19T23:07:43.471Z,6.31
2022-10-19T23:10:47.000Z,6.25
2022-10-19T23:13:52.088Z,6.20
2022-10-19T23:16:55.675Z,6.22
2022-10-19T23:19:59.282Z,6.14
2022-10-19T23:23:02.850Z,6.16
2022-10-19T23:26:10.098Z,6.16
2022-10-19T23:29:16.210Z,6.22
2022-10-19T23:32:19.929Z,6.16
2022-10-19T23:35:23.466Z,6.05
2022-10-19T23:38:27.090Z,6.03
2022-10-19T23:41:30.610Z,6.01
2022-10-19T23:44:35.559Z,6.03
2022-10-19T23:47:39.237Z,5.97
2022-10-19T23:50:42.810Z,5.95
2022-10-19T23:53:49.416Z,5.88
2022-10-19T23:56:54.127Z,5.82
2022-10-19T23:59:59.055Z,5.78
